sensor_id;sensor_type;location;lat;lon;timestamp;P1;durP1;ratioP1;P2;durP2;ratioP2
8113;SDS011;4099;52.684;9.918;2023-07-09T00:00:24;6.50;;;5.90;;
8113;SDS011;4099;52.684;9.918;2023-07-09T00:05:26;8.37;;;6.33;;
8113;SDS011;4099;52.684;9.918;2023-07-09T00:10:28;6.73;;;6.20;;
8113;SDS011;4099;52.684;9.918;2023-07-09T00:15:31;6.87;;;6.23;;
8113;SDS011;4099;52.684;9.918;2023-07-09T00:20:33;6.93;;;6.30;;
8113;SDS011;4099;52.684;9.918;2023-07-09T00:25:34;6.80;;;6.20;;
8113;SDS011;4099;52.684;9.918;2023-07-09T00:30:38;6.83;;;6.23;;
8113;SDS011;4099;52.684;9.918;2023-07-09T00:35:40;9.03;;;6.10;;
8113;SDS011;4099;52.684;9.918;2023-07-09T00:40:46;6.03;;;5.53;;
8113;SDS011;4099;52.684;9.918;2023-07-09T00:51:26;7.03;;;6.33;;
8113;SDS011;4099;52.684;9.918;2023-07-09T00:56:29;6.47;;;5.93;;
8113;SDS011;4099;52.684;9.918;2023-07-09T01:01:34;6.77;;;6.17;;
8113;SDS011;4099;52.684;9.918;2023-07-09T01:06:38;7.10;;;6.50;;
8113;SDS011;4099;52.684;9.918;2023-07-09T01:11:45;7.00;;;6.40;;
8113;SDS011;4099;52.684;9.918;2023-07-09T01:16:48;6.93;;;6.33;;
8113;SDS011;4099;52.684;9.918;2023-07-09T01:21:59;6.70;;;6.10;;
8113;SDS011;4099;52.684;9.918;2023-07-09T01:27:02;6.57;;;5.97;;
8113;SDS011;4099;52.684;9.918;2023-07-09T01:32:05;7.03;;;6.20;;
8113;SDS011;4099;52.684;9.918;2023-07-09T01:37:08;6.27;;;5.67;;
8113;SDS011;4099;52.684;9.918;2023-07-09T01:42:10;6.77;;;6.20;;
8113;SDS011;4099;52.684;9.918;2023-07-09T01:47:13;6.70;;;5.93;;
8113;SDS011;4099;52.684;9.918;2023-07-09T01:52:17;6.60;;;6.00;;
8113;SDS011;4099;52.684;9.918;2023-07-09T01:57:20;6.47;;;5.97;;
8113;SDS011;4099;52.684;9.918;2023-07-09T02:02:23;6.87;;;6.27;;
8113;SDS011;4099;52.684;9.918;2023-07-09T02:07:27;7.10;;;6.50;;
8113;SDS011;4099;52.684;9.918;2023-07-09T02:12:28;7.03;;;6.43;;
8113;SDS011;4099;52.684;9.918;2023-07-09T02:17:30;7.00;;;6.40;;
8113;SDS011;4099;52.684;9.918;2023-07-09T02:22:33;7.00;;;6.40;;
8113;SDS011;4099;52.684;9.918;2023-07-09T02:27:36;6.97;;;6.27;;
8113;SDS011;4099;52.684;9.918;2023-07-09T02:32:38;7.10;;;6.50;;
8113;SDS011;4099;52.684;9.918;2023-07-09T02:37:42;7.07;;;6.47;;
8113;SDS011;4099;52.684;9.918;2023-07-09T02:42:45;7.67;;;6.50;;
8113;SDS011;4099;52.684;9.918;2023-07-09T02:47:47;7.43;;;6.17;;
8113;SDS011;4099;52.684;9.918;2023-07-09T02:52:51;7.50;;;6.90;;
8113;SDS011;4099;52.684;9.918;2023-07-09T02:57:56;7.60;;;6.90;;
8113;SDS011;4099;52.684;9.918;2023-07-09T03:02:58;7.20;;;6.60;;
8113;SDS011;4099;52.684;9.918;2023-07-09T03:08:01;7.47;;;6.87;;
8113;SDS011;4099;52.684;9.918;2023-07-09T03:13:03;7.40;;;6.70;;
8113;SDS011;4099;52.684;9.918;2023-07-09T03:18:04;7.73;;;7.13;;
8113;SDS011;4099;52.684;9.918;2023-07-09T03:23:08;7.50;;;6.80;;
8113;SDS011;4099;52.684;9.918;2023-07-09T03:28:10;7.30;;;6.70;;
8113;SDS011;4099;52.684;9.918;2023-07-09T03:33:12;7.50;;;6.90;;
8113;SDS011;4099;52.684;9.918;2023-07-09T03:38:17;7.17;;;6.57;;
8113;SDS011;4099;52.684;9.918;2023-07-09T03:43:20;7.57;;;6.87;;
8113;SDS011;4099;52.684;9.918;2023-07-09T03:48:22;7.23;;;6.53;;
8113;SDS011;4099;52.684;9.918;2023-07-09T03:53:26;7.77;;;7.07;;
8113;SDS011;4099;52.684;9.918;2023-07-09T03:58:29;8.07;;;7.27;;
8113;SDS011;4099;52.684;9.918;2023-07-09T04:03:31;8.10;;;7.30;;
8113;SDS011;4099;52.684;9.918;2023-07-09T04:08:34;8.27;;;7.20;;
8113;SDS011;4099;52.684;9.918;2023-07-09T04:13:36;7.70;;;7.00;;
8113;SDS011;4099;52.684;9.918;2023-07-09T04:18:38;8.30;;;7.60;;
8113;SDS011;4099;52.684;9.918;2023-07-09T04:23:42;8.07;;;7.47;;
8113;SDS011;4099;52.684;9.918;2023-07-09T04:28:43;9.03;;;8.13;;
8113;SDS011;4099;52.684;9.918;2023-07-09T04:33:45;8.10;;;7.40;;
8113;SDS011;4099;52.684;9.918;2023-07-09T04:38:49;8.10;;;7.40;;
8113;SDS011;4099;52.684;9.918;2023-07-09T04:43:51;7.83;;;7.00;;
8113;SDS011;4099;52.684;9.918;2023-07-09T04:48:52;7.53;;;6.83;;
8113;SDS011;4099;52.684;9.918;2023-07-09T04:53:57;8.20;;;7.40;;
8113;SDS011;4099;52.684;9.918;2023-07-09T04:58:58;7.70;;;7.00;;
8113;SDS011;4099;52.684;9.918;2023-07-09T05:04:00;9.33;;;7.37;;
8113;SDS011;4099;52.684;9.918;2023-07-09T05:09:04;7.83;;;6.43;;
8113;SDS011;4099;52.684;9.918;2023-07-09T05:14:06;6.73;;;6.00;;
8113;SDS011;4099;52.684;9.918;2023-07-09T05:19:08;6.33;;;5.73;;
8113;SDS011;4099;52.684;9.918;2023-07-09T05:24:11;6.43;;;5.83;;
8113;SDS011;4099;52.684;9.918;2023-07-09T05:29:13;6.33;;;5.80;;
8113;SDS011;4099;52.684;9.918;2023-07-09T05:34:14;5.87;;;5.30;;
8113;SDS011;4099;52.684;9.918;2023-07-09T05:39:17;6.17;;;5.60;;
8113;SDS011;4099;52.684;9.918;2023-07-09T05:44:19;6.43;;;5.77;;
8113;SDS011;4099;52.684;9.918;2023-07-09T05:49:21;6.40;;;5.90;;
8113;SDS011;4099;52.684;9.918;2023-07-09T05:54:24;6.23;;;5.63;;
8113;SDS011;4099;52.684;9.918;2023-07-09T05:59:26;6.30;;;5.70;;
8113;SDS011;4099;52.684;9.918;2023-07-09T06:04:28;6.33;;;5.83;;
8113;SDS011;4099;52.684;9.918;2023-07-09T06:09:32;8.80;;;6.10;;
8113;SDS011;4099;52.684;9.918;2023-07-09T06:14:34;6.73;;;6.17;;
8113;SDS011;4099;52.684;9.918;2023-07-09T06:19:36;6.40;;;5.87;;
8113;SDS011;4099;52.684;9.918;2023-07-09T06:24:39;6.90;;;6.30;;
8113;SDS011;4099;52.684;9.918;2023-07-09T06:29:41;6.40;;;6.00;;
8113;SDS011;4099;52.684;9.918;2023-07-09T06:34:43;6.40;;;5.90;;
8113;SDS011;4099;52.684;9.918;2023-07-09T06:39:46;7.07;;;6.37;;
8113;SDS011;4099;52.684;9.918;2023-07-09T06:44:48;6.80;;;6.30;;
8113;SDS011;4099;52.684;9.918;2023-07-09T06:49:49;6.93;;;6.37;;
8113;SDS011;4099;52.684;9.918;2023-07-09T06:54:52;6.50;;;6.00;;
8113;SDS011;4099;52.684;9.918;2023-07-09T06:59:54;9.87;;;6.70;;
8113;SDS011;4099;52.684;9.918;2023-07-09T07:04:56;6.83;;;6.13;;
8113;SDS011;4099;52.684;9.918;2023-07-09T07:09:59;6.97;;;6.38;;
8113;SDS011;4099;52.684;9.918;2023-07-09T07:15:01;6.70;;;6.00;;
8113;SDS011;4099;52.684;9.918;2023-07-09T07:20:03;6.75;;;6.13;;
8113;SDS011;4099;52.684;9.918;2023-07-09T07:25:07;6.68;;;6.18;;
8113;SDS011;4099;52.684;9.918;2023-07-09T07:30:09;6.60;;;6.00;;
8113;SDS011;4099;52.684;9.918;2023-07-09T07:35:11;6.78;;;6.18;;
8113;SDS011;4099;52.684;9.918;2023-07-09T07:40:15;6.97;;;6.38;;
8113;SDS011;4099;52.684;9.918;2023-07-09T07:45:17;7.47;;;6.88;;
8113;SDS011;4099;52.684;9.918;2023-07-09T07:50:20;6.95;;;6.35;;
8113;SDS011;4099;52.684;9.918;2023-07-09T07:55:23;6.50;;;5.90;;
8113;SDS011;4099;52.684;9.918;2023-07-09T08:00:25;6.45;;;5.90;;
8113;SDS011;4099;52.684;9.918;2023-07-09T08:05:27;6.25;;;5.75;;
8113;SDS011;4099;52.684;9.918;2023-07-09T08:10:30;6.80;;;6.20;;
8113;SDS011;4099;52.684;9.918;2023-07-09T08:15:32;6.70;;;6.20;;
8113;SDS011;4099;52.684;9.918;2023-07-09T08:20:35;7.07;;;6.47;;
8113;SDS011;4099;52.684;9.918;2023-07-09T08:25:38;6.50;;;6.00;;
8113;SDS011;4099;52.684;9.918;2023-07-09T08:30:40;6.65;;;6.15;;
8113;SDS011;4099;52.684;9.918;2023-07-09T08:35:42;6.13;;;5.70;;
8113;SDS011;4099;52.684;9.918;2023-07-09T08:40:49;6.47;;;5.88;;
8113;SDS011;4099;52.684;9.918;2023-07-09T08:45:57;6.85;;;6.30;;
8113;SDS011;4099;52.684;9.918;2023-07-09T08:51:14;6.90;;;6.40;;
8113;SDS011;4099;52.684;9.918;2023-07-09T08:56:21;6.72;;;6.22;;
8113;SDS011;4099;52.684;9.918;2023-07-09T09:01:24;6.53;;;6.05;;
8113;SDS011;4099;52.684;9.918;2023-07-09T09:06:29;20.27;;;7.93;;
8113;SDS011;4099;52.684;9.918;2023-07-09T09:11:38;20.65;;;7.20;;
8113;SDS011;4099;52.684;9.918;2023-07-09T09:16:44;10.10;;;6.93;;
8113;SDS011;4099;52.684;9.918;2023-07-09T09:21:50;20.05;;;7.13;;
8113;SDS011;4099;52.684;9.918;2023-07-09T09:26:59;6.35;;;5.85;;
8113;SDS011;4099;52.684;9.918;2023-07-09T09:32:04;7.53;;;6.82;;
8113;SDS011;4099;52.684;9.918;2023-07-09T09:37:23;6.50;;;5.93;;
8113;SDS011;4099;52.684;9.918;2023-07-09T09:42:28;22.55;;;11.02;;
8113;SDS011;4099;52.684;9.918;2023-07-09T09:47:30;6.55;;;5.97;;
8113;SDS011;4099;52.684;9.918;2023-07-09T09:52:32;6.00;;;5.60;;
8113;SDS011;4099;52.684;9.918;2023-07-09T09:57:36;6.13;;;5.55;;
8113;SDS011;4099;52.684;9.918;2023-07-09T10:02:38;6.22;;;5.35;;
8113;SDS011;4099;52.684;9.918;2023-07-09T10:07:43;6.55;;;6.05;;
8113;SDS011;4099;52.684;9.918;2023-07-09T10:12:51;6.55;;;6.05;;
8113;SDS011;4099;52.684;9.918;2023-07-09T10:17:58;5.78;;;5.38;;
8113;SDS011;4099;52.684;9.918;2023-07-09T10:23:12;6.18;;;5.57;;
8113;SDS011;4099;52.684;9.918;2023-07-09T10:28:30;5.65;;;5.25;;
8113;SDS011;4099;52.684;9.918;2023-07-09T10:33:48;5.65;;;5.25;;
8113;SDS011;4099;52.684;9.918;2023-07-09T10:38:59;6.22;;;5.68;;
8113;SDS011;4099;52.684;9.918;2023-07-09T10:44:06;7.30;;;5.50;;
8113;SDS011;4099;52.684;9.918;2023-07-09T10:49:17;5.50;;;5.05;;
8113;SDS011;4099;52.684;9.918;2023-07-09T10:54:22;5.88;;;5.47;;
8113;SDS011;4099;52.684;9.918;2023-07-09T10:59:32;5.45;;;4.95;;
8113;SDS011;4099;52.684;9.918;2023-07-09T11:04:37;6.03;;;5.53;;
8113;SDS011;4099;52.684;9.918;2023-07-09T11:09:44;6.20;;;5.70;;
8113;SDS011;4099;52.684;9.918;2023-07-09T11:14:51;6.20;;;5.70;;
8113;SDS011;4099;52.684;9.918;2023-07-09T11:19:57;6.30;;;5.70;;
8113;SDS011;4099;52.684;9.918;2023-07-09T11:25:05;6.03;;;5.40;;
8113;SDS011;4099;52.684;9.918;2023-07-09T11:30:19;6.22;;;5.63;;
8113;SDS011;4099;52.684;9.918;2023-07-09T11:35:23;5.65;;;5.25;;
8113;SDS011;4099;52.684;9.918;2023-07-09T11:40:26;5.68;;;5.28;;
8113;SDS011;4099;52.684;9.918;2023-07-09T11:45:30;6.13;;;5.57;;
8113;SDS011;4099;52.684;9.918;2023-07-09T11:50:34;5.97;;;5.47;;
8113;SDS011;4099;52.684;9.918;2023-07-09T11:55:40;5.78;;;5.32;;
8113;SDS011;4099;52.684;9.918;2023-07-09T12:00:45;6.65;;;6.03;;
8113;SDS011;4099;52.684;9.918;2023-07-09T12:05:49;6.18;;;5.68;;
8113;SDS011;4099;52.684;9.918;2023-07-09T12:10:53;6.25;;;5.75;;
8113;SDS011;4099;52.684;9.918;2023-07-09T12:15:57;5.97;;;5.47;;
8113;SDS011;4099;52.684;9.918;2023-07-09T12:20:58;5.72;;;5.22;;
8113;SDS011;4099;52.684;9.918;2023-07-09T12:26:02;6.00;;;5.50;;
8113;SDS011;4099;52.684;9.918;2023-07-09T12:31:10;5.65;;;5.25;;
8113;SDS011;4099;52.684;9.918;2023-07-09T12:36:16;5.97;;;5.57;;
8113;SDS011;4099;52.684;9.918;2023-07-09T12:41:19;6.28;;;5.68;;
8113;SDS011;4099;52.684;9.918;2023-07-09T12:46:26;6.38;;;5.80;;
8113;SDS011;4099;52.684;9.918;2023-07-09T12:51:29;6.72;;;6.13;;
8113;SDS011;4099;52.684;9.918;2023-07-09T12:56:33;6.20;;;5.70;;
8113;SDS011;4099;52.684;9.918;2023-07-09T13:01:38;6.03;;;5.43;;
8113;SDS011;4099;52.684;9.918;2023-07-09T13:06:40;5.95;;;5.55;;
8113;SDS011;4099;52.684;9.918;2023-07-09T13:11:44;6.10;;;5.60;;
8113;SDS011;4099;52.684;9.918;2023-07-09T13:16:48;5.55;;;5.13;;
8113;SDS011;4099;52.684;9.918;2023-07-09T13:21:52;6.10;;;5.60;;
8113;SDS011;4099;52.684;9.918;2023-07-09T13:26:54;6.63;;;6.03;;
8113;SDS011;4099;52.684;9.918;2023-07-09T13:31:59;5.80;;;5.28;;
8113;SDS011;4099;52.684;9.918;2023-07-09T13:37:01;5.70;;;5.25;;
8113;SDS011;4099;52.684;9.918;2023-07-09T13:42:04;6.13;;;5.63;;
8113;SDS011;4099;52.684;9.918;2023-07-09T13:47:12;5.93;;;5.43;;
8113;SDS011;4099;52.684;9.918;2023-07-09T13:52:17;6.18;;;5.57;;
8113;SDS011;4099;52.684;9.918;2023-07-09T13:57:23;6.32;;;5.75;;
8113;SDS011;4099;52.684;9.918;2023-07-09T14:02:27;6.35;;;5.80;;
8113;SDS011;4099;52.684;9.918;2023-07-09T14:07:32;6.30;;;5.80;;
8113;SDS011;4099;52.684;9.918;2023-07-09T14:12:35;6.10;;;5.60;;
8113;SDS011;4099;52.684;9.918;2023-07-09T14:17:41;6.25;;;5.55;;
8113;SDS011;4099;52.684;9.918;2023-07-09T14:22:44;6.18;;;5.68;;
8113;SDS011;4099;52.684;9.918;2023-07-09T14:27:47;6.25;;;5.65;;
8113;SDS011;4099;52.684;9.918;2023-07-09T14:32:51;6.07;;;5.57;;
8113;SDS011;4099;52.684;9.918;2023-07-09T14:37:53;7.28;;;5.85;;
8113;SDS011;4099;52.684;9.918;2023-07-09T14:42:55;5.80;;;5.30;;
8113;SDS011;4099;52.684;9.918;2023-07-09T14:48:01;6.15;;;5.55;;
8113;SDS011;4099;52.684;9.918;2023-07-09T14:53:13;6.15;;;5.57;;
8113;SDS011;4099;52.684;9.918;2023-07-09T14:58:17;5.57;;;5.18;;
8113;SDS011;4099;52.684;9.918;2023-07-09T15:03:22;6.32;;;5.72;;
8113;SDS011;4099;52.684;9.918;2023-07-09T15:08:25;6.32;;;5.82;;
8113;SDS011;4099;52.684;9.918;2023-07-09T15:13:29;6.10;;;5.65;;
8113;SDS011;4099;52.684;9.918;2023-07-09T15:18:34;6.03;;;5.47;;
8113;SDS011;4099;52.684;9.918;2023-07-09T15:23:39;6.20;;;5.60;;
8113;SDS011;4099;52.684;9.918;2023-07-09T15:28:44;6.18;;;5.63;;
8113;SDS011;4099;52.684;9.918;2023-07-09T15:33:51;6.03;;;5.53;;
8113;SDS011;4099;52.684;9.918;2023-07-09T15:38:53;6.55;;;5.95;;
8113;SDS011;4099;52.684;9.918;2023-07-09T15:43:55;6.40;;;5.82;;
8113;SDS011;4099;52.684;9.918;2023-07-09T15:48:59;6.28;;;5.72;;
8113;SDS011;4099;52.684;9.918;2023-07-09T15:54:03;5.97;;;5.47;;
8113;SDS011;4099;52.684;9.918;2023-07-09T15:59:12;6.07;;;5.50;;
8113;SDS011;4099;52.684;9.918;2023-07-09T16:04:26;7.40;;;6.28;;
8113;SDS011;4099;52.684;9.918;2023-07-09T16:09:28;6.05;;;5.47;;
8113;SDS011;4099;52.684;9.918;2023-07-09T16:14:31;6.05;;;5.55;;
8113;SDS011;4099;52.684;9.918;2023-07-09T16:19:35;6.30;;;5.70;;
8113;SDS011;4099;52.684;9.918;2023-07-09T16:24:37;6.20;;;5.70;;
8113;SDS011;4099;52.684;9.918;2023-07-09T16:29:39;5.60;;;5.18;;
8113;SDS011;4099;52.684;9.918;2023-07-09T16:34:42;7.07;;;5.93;;
8113;SDS011;4099;52.684;9.918;2023-07-09T16:39:44;6.22;;;5.63;;
8113;SDS011;4099;52.684;9.918;2023-07-09T16:44:46;6.10;;;5.53;;
8113;SDS011;4099;52.684;9.918;2023-07-09T16:49:49;5.70;;;5.20;;
8113;SDS011;4099;52.684;9.918;2023-07-09T16:54:51;6.28;;;5.68;;
8113;SDS011;4099;52.684;9.918;2023-07-09T16:59:54;7.90;;;5.63;;
8113;SDS011;4099;52.684;9.918;2023-07-09T17:05:03;6.40;;;5.70;;
8113;SDS011;4099;52.684;9.918;2023-07-09T17:10:06;5.97;;;5.47;;
8113;SDS011;4099;52.684;9.918;2023-07-09T17:15:18;7.53;;;6.05;;
8113;SDS011;4099;52.684;9.918;2023-07-09T17:20:24;6.35;;;5.75;;
8113;SDS011;4099;52.684;9.918;2023-07-09T17:25:29;6.72;;;5.75;;
8113;SDS011;4099;52.684;9.918;2023-07-09T17:30:32;7.70;;;6.90;;
8113;SDS011;4099;52.684;9.918;2023-07-09T17:35:36;6.22;;;5.70;;
8113;SDS011;4099;52.684;9.918;2023-07-09T17:40:38;7.18;;;5.53;;
8113;SDS011;4099;52.684;9.918;2023-07-09T17:45:41;9.13;;;7.90;;
8113;SDS011;4099;52.684;9.918;2023-07-09T17:50:44;7.85;;;6.88;;
8113;SDS011;4099;52.684;9.918;2023-07-09T17:55:46;7.10;;;6.25;;
8113;SDS011;4099;52.684;9.918;2023-07-09T18:00:49;6.97;;;6.28;;
8113;SDS011;4099;52.684;9.918;2023-07-09T18:05:54;6.97;;;6.28;;
8113;SDS011;4099;52.684;9.918;2023-07-09T18:10:56;7.00;;;6.40;;
8113;SDS011;4099;52.684;9.918;2023-07-09T18:15:59;7.55;;;6.85;;
8113;SDS011;4099;52.684;9.918;2023-07-09T18:21:02;8.63;;;7.05;;
8113;SDS011;4099;52.684;9.918;2023-07-09T18:26:04;7.60;;;6.93;;
8113;SDS011;4099;52.684;9.918;2023-07-09T18:31:08;8.20;;;6.93;;
8113;SDS011;4099;52.684;9.918;2023-07-09T18:36:12;7.60;;;6.90;;
8113;SDS011;4099;52.684;9.918;2023-07-09T18:41:14;7.82;;;7.13;;
8113;SDS011;4099;52.684;9.918;2023-07-09T18:46:17;9.98;;;7.88;;
8113;SDS011;4099;52.684;9.918;2023-07-09T18:51:20;9.00;;;8.07;;
8113;SDS011;4099;52.684;9.918;2023-07-09T18:56:23;8.75;;;7.85;;
8113;SDS011;4099;52.684;9.918;2023-07-09T19:01:24;8.85;;;8.05;;
8113;SDS011;4099;52.684;9.918;2023-07-09T19:06:28;8.80;;;8.00;;
8113;SDS011;4099;52.684;9.918;2023-07-09T19:11:29;9.30;;;8.50;;
8113;SDS011;4099;52.684;9.918;2023-07-09T19:16:31;10.57;;;5.60;;
8113;SDS011;4099;52.684;9.918;2023-07-09T19:21:34;8.05;;;4.82;;
8113;SDS011;4099;52.684;9.918;2023-07-09T19:26:36;6.18;;;3.67;;
8113;SDS011;4099;52.684;9.918;2023-07-09T19:31:38;4.55;;;3.83;;
8113;SDS011;4099;52.684;9.918;2023-07-09T19:36:43;5.93;;;3.60;;
8113;SDS011;4099;52.684;9.918;2023-07-09T19:41:45;7.03;;;3.65;;
8113;SDS011;4099;52.684;9.918;2023-07-09T19:46:48;4.88;;;3.33;;
8113;SDS011;4099;52.684;9.918;2023-07-09T19:51:51;5.67;;;3.60;;
8113;SDS011;4099;52.684;9.918;2023-07-09T19:56:53;5.23;;;3.90;;
8113;SDS011;4099;52.684;9.918;2023-07-09T20:01:55;5.60;;;3.83;;
8113;SDS011;4099;52.684;9.918;2023-07-09T20:06:58;5.47;;;4.00;;
8113;SDS011;4099;52.684;9.918;2023-07-09T20:12:00;6.73;;;4.20;;
8113;SDS011;4099;52.684;9.918;2023-07-09T20:17:03;5.90;;;4.60;;
8113;SDS011;4099;52.684;9.918;2023-07-09T20:22:08;4.90;;;4.30;;
8113;SDS011;4099;52.684;9.918;2023-07-09T20:27:13;5.60;;;4.60;;
8113;SDS011;4099;52.684;9.918;2023-07-09T20:32:17;4.87;;;4.37;;
8113;SDS011;4099;52.684;9.918;2023-07-09T20:37:22;5.10;;;4.70;;
8113;SDS011;4099;52.684;9.918;2023-07-09T20:42:24;4.83;;;4.40;;
8113;SDS011;4099;52.684;9.918;2023-07-09T20:47:26;6.43;;;4.70;;
8113;SDS011;4099;52.684;9.918;2023-07-09T20:52:29;5.27;;;4.80;;
8113;SDS011;4099;52.684;9.918;2023-07-09T20:57:32;5.00;;;4.60;;
8113;SDS011;4099;52.684;9.918;2023-07-09T21:02:35;4.93;;;4.53;;
8113;SDS011;4099;52.684;9.918;2023-07-09T21:07:40;5.57;;;5.07;;
8113;SDS011;4099;52.684;9.918;2023-07-09T21:12:43;5.60;;;4.90;;
8113;SDS011;4099;52.684;9.918;2023-07-09T21:17:45;5.20;;;4.80;;
8113;SDS011;4099;52.684;9.918;2023-07-09T21:22:52;5.00;;;4.60;;
8113;SDS011;4099;52.684;9.918;2023-07-09T21:27:54;6.37;;;4.70;;
8113;SDS011;4099;52.684;9.918;2023-07-09T21:32:56;5.10;;;4.60;;
8113;SDS011;4099;52.684;9.918;2023-07-09T21:37:59;5.83;;;4.97;;
8113;SDS011;4099;52.684;9.918;2023-07-09T21:43:01;6.43;;;5.40;;
8113;SDS011;4099;52.684;9.918;2023-07-09T21:48:10;6.30;;;5.00;;
8113;SDS011;4099;52.684;9.918;2023-07-09T21:53:17;5.37;;;4.87;;
8113;SDS011;4099;52.684;9.918;2023-07-09T21:58:19;7.20;;;5.10;;
8113;SDS011;4099;52.684;9.918;2023-07-09T22:03:21;8.83;;;5.40;;
8113;SDS011;4099;52.684;9.918;2023-07-09T22:08:24;7.17;;;4.90;;
8113;SDS011;4099;52.684;9.918;2023-07-09T22:13:31;5.13;;;4.63;;
8113;SDS011;4099;52.684;9.918;2023-07-09T22:18:34;5.60;;;5.10;;
8113;SDS011;4099;52.684;9.918;2023-07-09T22:23:37;5.23;;;4.77;;
8113;SDS011;4099;52.684;9.918;2023-07-09T22:28:39;5.90;;;5.20;;
8113;SDS011;4099;52.684;9.918;2023-07-09T22:33:41;5.90;;;5.30;;
8113;SDS011;4099;52.684;9.918;2023-07-09T22:38:44;6.07;;;5.57;;
8113;SDS011;4099;52.684;9.918;2023-07-09T22:43:46;7.17;;;6.43;;
8113;SDS011;4099;52.684;9.918;2023-07-09T22:48:47;7.27;;;6.50;;
8113;SDS011;4099;52.684;9.918;2023-07-09T22:53:54;6.80;;;6.20;;
8113;SDS011;4099;52.684;9.918;2023-07-09T22:58:56;6.23;;;5.63;;
8113;SDS011;4099;52.684;9.918;2023-07-09T23:03:58;6.13;;;5.63;;
8113;SDS011;4099;52.684;9.918;2023-07-09T23:09:02;5.67;;;5.17;;
8113;SDS011;4099;52.684;9.918;2023-07-09T23:14:05;5.47;;;4.97;;
8113;SDS011;4099;52.684;9.918;2023-07-09T23:19:16;5.93;;;5.43;;
8113;SDS011;4099;52.684;9.918;2023-07-09T23:24:24;6.30;;;5.70;;
8113;SDS011;4099;52.684;9.918;2023-07-09T23:29:26;6.90;;;6.30;;
8113;SDS011;4099;52.684;9.918;2023-07-09T23:34:28;7.60;;;6.93;;
8113;SDS011;4099;52.684;9.918;2023-07-09T23:39:31;8.30;;;7.50;;
8113;SDS011;4099;52.684;9.918;2023-07-09T23:44:33;7.20;;;6.50;;
8113;SDS011;4099;52.684;9.918;2023-07-09T23:49:35;7.20;;;6.60;;
8113;SDS011;4099;52.684;9.918;2023-07-09T23:54:38;7.07;;;6.37;;
8113;SDS011;4099;52.684;9.918;2023-07-09T23:59:39;6.77;;;6.20;;
